East Peacham, Vermont
Current Conditions -  °F | °C
As of 12:15 PM on Thursday 27 Nov 2014 (Local Time) from KCDA Reporting Station
Overcast Overcast  
Wind Chill: 18°   Ceiling: 2100
Heat Index: 26°   Visibility: 10mi
Dew Point: 17°   Wind: 7mph
Humidity: 70%   Direction: 300°WNW
Pressure: 29.96"   Gusts: NA
Location:  44.3331°N, 72.2067°W
Report Text: KCDA 271715Z AUTO 30006KT 10SM OVC021 M03/M08 A2996 RMK AO2 T10341081
Loading
Personal Weather Stations






























Interactive Weather Map New forecast layout! Learn more

10-Day Weather Forecast

Advertisements
Track Severe Weather on mobile